Time;durP1;ratioP1;P1;durP2;ratioP2;P2;SDS_P1;SDS_P2;PMS_P1;PMS_P2;Temp;Humidity;BMP_temperature;BMP_pressure;BME280_temperature;BME280_humidity;BME280_pressure;Samples;Min_cycle;Max_cycle;Signal;HPM_P1;HPM_P2
2022/12/09 00:00:32;;;;;;;20.13;15.90;;;5.00;99.90;;;;;;6153309;28;20962;-60
2022/12/09 00:03:35;;;;;;;19.73;14.87;;;4.90;99.90;;;;;;6153594;28;20473;-59
2022/12/09 00:06:39;;;;;;;21.47;16.20;;;4.90;99.90;;;;;;6153568;28;20462;-60
2022/12/09 00:09:43;;;;;;;19.73;15.80;;;4.90;99.90;;;;;;6149093;28;20494;-61
2022/12/09 00:12:47;;;;;;;25.40;17.17;;;4.90;99.90;;;;;;6153581;28;20467;-60
2022/12/09 00:15:50;;;;;;;19.53;15.00;;;4.90;99.90;;;;;;6153941;28;20442;-62
2022/12/09 00:18:53;;;;;;;23.53;16.10;;;4.90;99.90;;;;;;6145480;28;20472;-64
2022/12/09 00:21:57;;;;;;;22.20;15.10;;;5.00;99.90;;;;;;6141629;28;20481;-63
2022/12/09 00:25:01;;;;;;;20.73;14.93;;;5.00;99.90;;;;;;6141142;28;20904;-64
2022/12/09 00:28:05;;;;;;;19.53;14.70;;;5.00;99.90;;;;;;6141024;28;20482;-63
2022/12/09 00:31:12;;;;;;;20.40;14.60;;;5.10;99.90;;;;;;6139081;28;20471;-63
2022/12/09 00:34:15;;;;;;;19.60;14.67;;;5.10;99.90;;;;;;6130845;28;20498;-63
2022/12/09 00:37:18;;;;;;;19.97;15.73;;;5.20;99.90;;;;;;6152413;28;20474;-63
2022/12/09 00:40:23;;;;;;;21.73;16.07;;;5.10;99.90;;;;;;6177245;28;20469;-64
2022/12/09 00:43:26;;;;;;;22.70;16.20;;;5.10;99.90;;;;;;6139431;28;20486;-64
2022/12/09 00:46:29;;;;;;;23.57;15.80;;;5.00;99.90;;;;;;6141684;28;20479;-64
2022/12/09 00:49:33;;;;;;;23.50;15.27;;;5.10;99.90;;;;;;6141417;28;20474;-65
2022/12/09 00:52:36;;;;;;;20.98;14.82;;;5.00;99.90;;;;;;6098038;28;1303099;-63
2022/12/09 00:55:40;;;;;;;23.60;17.10;;;4.90;99.90;;;;;;6145764;28;20574;-63
2022/12/09 00:58:44;;;;;;;23.53;15.57;;;4.80;99.90;;;;;;6142621;28;20551;-64
2022/12/09 01:01:47;;;;;;;18.63;14.13;;;4.90;99.90;;;;;;6144663;28;20478;-64
2022/12/09 01:04:51;;;;;;;20.70;15.83;;;4.90;99.90;;;;;;6143889;28;20514;-63
2022/12/09 01:07:55;;;;;;;24.70;17.53;;;4.90;99.90;;;;;;6138358;28;20478;-63
2022/12/09 01:11:00;;;;;;;21.07;16.50;;;4.80;99.90;;;;;;6132137;28;20475;-63
2022/12/09 01:14:04;;;;;;;20.20;16.13;;;4.70;99.90;;;;;;6139829;28;20475;-63
2022/12/09 01:17:07;;;;;;;21.83;14.50;;;4.70;99.90;;;;;;6144568;28;20495;-63
2022/12/09 01:20:11;;;;;;;20.70;16.20;;;4.60;99.90;;;;;;6140600;28;20478;-63
2022/12/09 01:23:14;;;;;;;21.40;17.13;;;4.50;99.90;;;;;;6144491;28;20484;-63
2022/12/09 01:26:19;;;;;;;21.70;16.07;;;4.50;99.90;;;;;;6139995;28;20962;-63
2022/12/09 01:29:22;;;;;;;20.70;14.50;;;4.40;99.90;;;;;;6137812;28;20472;-63
2022/12/09 01:32:25;;;;;;;26.03;15.90;;;4.40;99.90;;;;;;6130405;28;20777;-63
2022/12/09 01:35:29;;;;;;;19.03;14.53;;;4.40;99.90;;;;;;6129973;28;20472;-63
2022/12/09 01:38:32;;;;;;;21.20;15.13;;;4.40;99.90;;;;;;6173011;28;20552;-65
2022/12/09 01:41:36;;;;;;;22.13;15.40;;;4.40;99.90;;;;;;6178542;28;20469;-64
2022/12/09 01:44:55;;;;;;;23.13;16.67;;;4.40;99.90;;;;;;6178054;28;20480;-65
2022/12/09 01:48:03;;;;;;;22.93;15.80;;;4.40;99.90;;;;;;6144632;28;20493;-63
2022/12/09 01:51:12;;;;;;;19.13;15.70;;;4.40;99.90;;;;;;6147209;28;20467;-63
2022/12/09 01:54:16;;;;;;;22.73;16.13;;;4.50;99.90;;;;;;6135139;28;20479;-63
2022/12/09 01:57:20;;;;;;;21.80;16.00;;;4.50;99.90;;;;;;6160627;28;20485;-64
2022/12/09 02:00:24;;;;;;;20.00;16.00;;;4.60;99.90;;;;;;6143087;28;20483;-63
2022/12/09 02:03:27;;;;;;;18.87;14.27;;;4.50;99.90;;;;;;6153284;28;20512;-63
2022/12/09 02:06:31;;;;;;;19.43;15.00;;;4.60;99.90;;;;;;6145161;28;20566;-63
2022/12/09 02:09:34;;;;;;;21.77;15.53;;;4.60;99.90;;;;;;6146952;28;20603;-64
2022/12/09 02:12:50;;;;;;;16.63;14.40;;;4.60;99.90;;;;;;6147577;28;20618;-64
2022/12/09 02:15:57;;;;;;;22.40;16.60;;;4.60;99.90;;;;;;6149302;28;20462;-64
2022/12/09 02:19:11;;;;;;;20.43;13.53;;;4.60;99.90;;;;;;6140420;28;20466;-64
2022/12/09 02:22:26;;;;;;;20.50;16.87;;;4.60;99.90;;;;;;6147538;28;20475;-63
2022/12/09 02:25:34;;;;;;;22.67;16.50;;;4.60;99.90;;;;;;6143333;28;20467;-63
2022/12/09 02:29:10;;;;;;;21.40;16.33;;;4.60;99.90;;;;;;6144220;28;20478;-64
2022/12/09 02:32:41;;;;;;;18.83;13.97;;;4.60;99.90;;;;;;6144627;28;21070;-63
2022/12/09 02:35:50;;;;;;;19.27;13.90;;;4.60;99.90;;;;;;6145391;28;20464;-64
2022/12/09 02:38:53;;;;;;;18.67;14.07;;;4.50;99.90;;;;;;6145982;28;20503;-63
2022/12/09 02:41:59;;;;;;;19.30;14.03;;;4.50;99.90;;;;;;6145075;28;20471;-63
2022/12/09 02:45:06;;;;;;;19.57;14.70;;;4.50;99.90;;;;;;6145793;28;20474;-64
2022/12/09 02:48:12;;;;;;;20.90;15.20;;;4.60;99.90;;;;;;6145823;28;20479;-64
2022/12/09 02:51:19;;;;;;;22.13;14.70;;;4.60;99.90;;;;;;6145567;28;20467;-64
2022/12/09 02:54:24;;;;;;;21.13;16.37;;;4.60;99.90;;;;;;6143902;28;20480;-63
2022/12/09 02:57:29;;;;;;;20.30;14.10;;;4.60;99.90;;;;;;6145696;28;20979;-64
2022/12/09 03:00:33;;;;;;;18.50;14.80;;;4.50;99.90;;;;;;6142466;28;20448;-63
2022/12/09 03:03:36;;;;;;;15.73;13.30;;;4.40;99.90;;;;;;6151065;28;20494;-63
2022/12/09 03:06:45;;;;;;;18.23;15.00;;;4.40;99.90;;;;;;6154029;28;20455;-64
2022/12/09 03:09:58;;;;;;;19.93;14.53;;;4.40;99.90;;;;;;6143568;28;20475;-64
2022/12/09 03:13:08;;;;;;;18.60;14.10;;;4.50;99.90;;;;;;6143884;28;20487;-63
2022/12/09 03:16:19;;;;;;;19.90;13.03;;;4.50;99.90;;;;;;6146289;28;20475;-64
2022/12/09 03:19:27;;;;;;;20.10;15.13;;;4.50;99.90;;;;;;6145201;28;20802;-64
2022/12/09 03:22:35;;;;;;;23.47;15.83;;;4.50;99.90;;;;;;6138840;28;20501;-64
2022/12/09 03:25:41;;;;;;;16.47;12.87;;;4.50;99.90;;;;;;6140333;28;20500;-64
2022/12/09 03:28:48;;;;;;;22.13;14.40;;;4.50;99.90;;;;;;6146454;28;20483;-63
2022/12/09 03:31:54;;;;;;;24.30;16.27;;;4.40;99.90;;;;;;6149742;28;20472;-64
2022/12/09 03:35:03;;;;;;;19.40;15.37;;;4.20;99.90;;;;;;6138767;28;20866;-64
2022/12/09 03:38:14;;;;;;;18.33;14.47;;;4.20;99.90;;;;;;6156811;28;20570;-64
2022/12/09 03:41:22;;;;;;;21.70;14.93;;;4.10;99.90;;;;;;6139239;28;20971;-63
2022/12/09 03:44:31;;;;;;;19.23;14.73;;;4.10;99.90;;;;;;6143868;28;20488;-63
2022/12/09 03:47:34;;;;;;;23.80;18.57;;;4.10;99.90;;;;;;6140758;28;20982;-63
2022/12/09 03:50:44;;;;;;;22.77;16.57;;;4.10;99.90;;;;;;6140135;29;20467;-64
2022/12/09 03:53:53;;;;;;;23.57;16.90;;;4.10;99.90;;;;;;6154635;28;20578;-63
2022/12/09 03:56:58;;;;;;;19.50;14.60;;;4.10;99.90;;;;;;6175922;28;20950;-63
2022/12/09 04:00:02;;;;;;;20.57;15.73;;;4.10;99.90;;;;;;6178959;28;20544;-64
2022/12/09 04:03:07;;;;;;;17.87;14.13;;;4.20;99.90;;;;;;6179005;28;20474;-64
2022/12/09 04:06:11;;;;;;;19.80;14.87;;;4.20;99.90;;;;;;6163410;28;20478;-63
2022/12/09 04:09:15;;;;;;;23.90;15.93;;;4.30;99.90;;;;;;6146843;28;20489;-63
2022/12/09 04:12:19;;;;;;;20.67;15.50;;;4.30;99.90;;;;;;6154489;28;20486;-63
2022/12/09 04:15:22;;;;;;;19.67;14.70;;;4.30;99.90;;;;;;6154533;28;20993;-63
2022/12/09 04:18:25;;;;;;;23.47;17.10;;;4.30;99.90;;;;;;6154146;28;20586;-63
2022/12/09 04:21:29;;;;;;;20.77;14.70;;;4.30;99.90;;;;;;6154225;28;20625;-63
2022/12/09 04:24:33;;;;;;;21.43;15.10;;;4.30;99.90;;;;;;6138269;28;20476;-63
2022/12/09 04:27:36;;;;;;;21.10;16.60;;;4.30;99.90;;;;;;6131885;28;20479;-63
2022/12/09 04:30:45;;;;;;;21.40;15.10;;;4.30;99.90;;;;;;6154540;28;20565;-63
2022/12/09 04:33:48;;;;;;;23.43;14.73;;;4.40;99.90;;;;;;6150484;28;20502;-64
2022/12/09 04:36:52;;;;;;;20.33;14.50;;;4.40;99.90;;;;;;6145730;28;20443;-64
2022/12/09 04:39:56;;;;;;;21.60;16.60;;;4.40;99.90;;;;;;6149847;28;20545;-63
2022/12/09 04:42:59;;;;;;;21.07;16.27;;;4.50;99.90;;;;;;6146069;28;20502;-64
2022/12/09 04:46:06;;;;;;;19.80;15.43;;;4.50;99.90;;;;;;6141716;28;20820;-63
2022/12/09 04:49:09;;;;;;;23.40;16.07;;;4.50;99.90;;;;;;6140720;28;20476;-63
2022/12/09 04:52:12;;;;;;;22.30;16.00;;;4.60;99.90;;;;;;6144111;28;20482;-63
2022/12/09 04:55:17;;;;;;;22.67;16.43;;;4.70;99.90;;;;;;6147530;28;20490;-63
2022/12/09 04:58:21;;;;;;;18.90;15.20;;;4.60;99.90;;;;;;6143525;28;20466;-63
2022/12/09 05:01:25;;;;;;;22.70;16.00;;;4.60;99.90;;;;;;6141886;28;20530;-64
2022/12/09 05:04:33;;;;;;;21.80;16.17;;;4.70;99.90;;;;;;6146369;28;20479;-63
2022/12/09 05:07:37;;;;;;;23.67;17.20;;;4.70;99.90;;;;;;6139333;28;20562;-63
2022/12/09 05:10:45;;;;;;;22.50;16.43;;;4.80;99.90;;;;;;6134506;28;20476;-63
2022/12/09 05:13:49;;;;;;;23.10;16.37;;;4.70;99.90;;;;;;6138969;28;20804;-63
2022/12/09 05:16:52;;;;;;;25.97;17.60;;;4.80;99.90;;;;;;6137495;28;20987;-63
2022/12/09 05:19:56;;;;;;;21.03;15.40;;;4.90;99.90;;;;;;6143585;28;20478;-63
2022/12/09 05:22:59;;;;;;;25.57;17.00;;;4.90;99.90;;;;;;6139784;28;20967;-64
2022/12/09 05:26:14;;;;;;;23.47;18.63;;;5.00;99.90;;;;;;6141204;28;20562;-63
2022/12/09 05:29:18;;;;;;;25.23;17.50;;;5.00;99.90;;;;;;6141292;28;20479;-64
2022/12/09 05:32:27;;;;;;;22.90;15.93;;;5.10;99.90;;;;;;6134666;28;20579;-63
2022/12/09 05:35:31;;;;;;;22.07;18.33;;;5.10;99.90;;;;;;6138792;28;20471;-62
2022/12/09 05:38:42;;;;;;;19.67;16.03;;;5.10;99.90;;;;;;6138467;28;20995;-62
2022/12/09 05:41:48;;;;;;;24.60;18.07;;;5.10;99.90;;;;;;6141730;28;20471;-62
2022/12/09 05:44:51;;;;;;;25.70;18.70;;;5.10;99.90;;;;;;6141054;28;20494;-62
2022/12/09 05:47:55;;;;;;;22.30;16.63;;;5.10;99.90;;;;;;6139369;28;20472;-62
2022/12/09 05:50:58;;;;;;;28.57;18.07;;;5.20;99.90;;;;;;6136555;28;20478;-63
2022/12/09 05:54:04;;;;;;;19.17;15.83;;;5.20;99.90;;;;;;6140066;28;20948;-63
2022/12/09 05:57:08;;;;;;;23.67;18.37;;;5.10;99.90;;;;;;6138314;28;20491;-64
2022/12/09 06:00:13;;;;;;;27.13;17.70;;;5.10;99.90;;;;;;6134814;28;20619;-63
2022/12/09 06:03:18;;;;;;;22.83;16.77;;;5.10;99.90;;;;;;6144892;28;20555;-63
2022/12/09 06:06:25;;;;;;;22.43;16.50;;;5.10;99.90;;;;;;6142228;28;20471;-63
2022/12/09 06:09:29;;;;;;;24.40;16.50;;;5.00;99.90;;;;;;6140122;28;20484;-63
2022/12/09 06:12:34;;;;;;;22.50;16.87;;;5.10;99.90;;;;;;6137444;28;20483;-63
2022/12/09 06:15:37;;;;;;;26.63;19.83;;;5.10;99.90;;;;;;6139255;28;20463;-63
2022/12/09 06:18:41;;;;;;;23.60;17.83;;;5.10;99.90;;;;;;6140893;28;20436;-64
2022/12/09 06:21:45;;;;;;;25.03;17.27;;;5.10;99.90;;;;;;6141955;28;20431;-64
2022/12/09 06:24:48;;;;;;;25.93;16.90;;;5.10;99.90;;;;;;6150791;28;20470;-64
2022/12/09 06:28:00;;;;;;;26.80;17.60;;;5.10;99.90;;;;;;6153024;28;20471;-63
2022/12/09 06:31:03;;;;;;;26.13;18.97;;;5.10;99.90;;;;;;6152493;28;20835;-63
2022/12/09 06:34:07;;;;;;;21.83;15.80;;;5.10;99.90;;;;;;6155053;28;20866;-64
2022/12/09 06:37:11;;;;;;;23.57;17.77;;;5.20;99.90;;;;;;6168131;28;20473;-63
2022/12/09 06:40:14;;;;;;;23.10;17.10;;;5.10;99.90;;;;;;6180969;28;20469;-62
2022/12/09 06:43:19;;;;;;;25.57;17.47;;;5.20;99.90;;;;;;6180334;28;20477;-63
2022/12/09 06:46:24;;;;;;;27.63;17.67;;;5.20;99.90;;;;;;6180249;28;20509;-63
2022/12/09 06:49:28;;;;;;;24.10;17.60;;;5.20;99.90;;;;;;6180866;28;20807;-63
2022/12/09 06:52:32;;;;;;;23.47;17.03;;;5.20;99.90;;;;;;6180651;28;20557;-63
2022/12/09 06:55:35;;;;;;;23.13;16.50;;;5.20;99.90;;;;;;6171143;28;20474;-63
2022/12/09 06:58:41;;;;;;;23.00;16.60;;;5.30;99.90;;;;;;6156591;28;20474;-63
2022/12/09 07:01:45;;;;;;;24.27;19.33;;;5.20;99.90;;;;;;6156599;28;20557;-63
2022/12/09 07:04:55;;;;;;;25.27;18.90;;;5.30;99.90;;;;;;6156646;28;20530;-63
2022/12/09 07:07:59;;;;;;;26.30;18.83;;;5.30;99.90;;;;;;6156074;28;20975;-64
2022/12/09 07:11:02;;;;;;;21.93;17.60;;;5.30;99.90;;;;;;6143697;28;20493;-63
2022/12/09 07:14:07;;;;;;;22.47;16.43;;;5.30;99.90;;;;;;6138177;28;20578;-63
2022/12/09 07:17:16;;;;;;;23.23;17.47;;;5.30;99.90;;;;;;6154724;28;20899;-63
2022/12/09 07:20:19;;;;;;;22.27;17.57;;;5.40;99.90;;;;;;6142813;28;20468;-63
2022/12/09 07:23:23;;;;;;;19.90;15.57;;;5.50;99.90;;;;;;6131320;28;20479;-64
2022/12/09 07:26:26;;;;;;;23.73;16.93;;;5.50;99.90;;;;;;6131976;28;20472;-63
2022/12/09 07:29:31;;;;;;;22.10;16.30;;;5.60;99.90;;;;;;6132553;28;20472;-63
2022/12/09 07:32:34;;;;;;;24.10;17.37;;;5.70;99.90;;;;;;6131995;28;20511;-64
2022/12/09 07:35:38;;;;;;;21.73;15.50;;;5.80;99.90;;;;;;6132639;28;20486;-64
2022/12/09 07:38:42;;;;;;;23.67;17.60;;;5.80;99.90;;;;;;6177819;28;20484;-64
2022/12/09 07:41:47;;;;;;;27.80;20.43;;;5.80;99.90;;;;;;6170971;28;20556;-63
2022/12/09 07:44:52;;;;;;;26.20;19.37;;;5.80;99.90;;;;;;6178180;28;20482;-64
2022/12/09 07:47:55;;;;;;;23.30;17.90;;;5.70;99.90;;;;;;6179533;28;20501;-63
2022/12/09 07:51:00;;;;;;;23.43;19.03;;;5.60;99.90;;;;;;6179660;28;20480;-64
2022/12/09 07:54:03;;;;;;;25.57;18.43;;;5.60;99.90;;;;;;6179341;28;20485;-63
2022/12/09 07:57:07;;;;;;;38.90;19.60;;;5.50;99.90;;;;;;6156813;28;20475;-63
2022/12/09 08:00:13;;;;;;;21.90;17.70;;;5.60;99.90;;;;;;6154896;28;20479;-63
2022/12/09 08:03:16;;;;;;;25.90;19.20;;;5.60;99.90;;;;;;6155051;28;20494;-63
2022/12/09 08:06:22;;;;;;;25.43;18.63;;;5.60;99.90;;;;;;6155219;28;20478;-63
2022/12/09 08:09:26;;;;;;;30.13;20.93;;;5.50;99.90;;;;;;6154736;28;20475;-63
2022/12/09 08:12:30;;;;;;;27.80;20.60;;;5.30;99.90;;;;;;6154733;28;20482;-63
2022/12/09 08:15:35;;;;;;;28.20;19.53;;;5.20;99.90;;;;;;6157061;28;20481;-63
2022/12/09 08:18:39;;;;;;;31.00;19.87;;;5.10;99.90;;;;;;6157351;28;20483;-63
2022/12/09 08:21:43;;;;;;;27.23;20.00;;;5.10;99.90;;;;;;6156162;28;20462;-63
2022/12/09 08:24:51;;;;;;;29.37;22.60;;;5.10;99.90;;;;;;6155543;28;20471;-63
2022/12/09 08:27:55;;;;;;;28.80;20.90;;;5.10;99.90;;;;;;6155060;28;20552;-63
2022/12/09 08:31:06;;;;;;;29.70;21.03;;;4.90;99.90;;;;;;6154164;28;20878;-64
2022/12/09 08:34:10;;;;;;;32.37;21.13;;;4.80;99.90;;;;;;6154512;28;20478;-63
2022/12/09 08:37:14;;;;;;;27.97;20.40;;;4.90;99.90;;;;;;6165244;28;20985;-63
2022/12/09 08:40:17;;;;;;;31.90;20.80;;;5.00;99.90;;;;;;6177818;28;20477;-62
2022/12/09 08:43:21;;;;;;;31.60;23.80;;;5.00;99.90;;;;;;6146646;28;20490;-62
2022/12/09 08:46:26;;;;;;;31.63;22.10;;;5.10;99.90;;;;;;6153632;28;20969;-64
2022/12/09 08:49:29;;;;;;;27.57;20.10;;;5.20;99.90;;;;;;6148151;28;20530;-64
2022/12/09 08:52:33;;;;;;;28.63;20.50;;;5.20;99.90;;;;;;6152130;28;20489;-61
2022/12/09 08:55:42;;;;;;;29.50;21.00;;;5.20;99.90;;;;;;6164250;28;20544;-62
2022/12/09 08:58:47;;;;;;;30.67;21.30;;;5.30;99.90;;;;;;6169669;28;20470;-63
2022/12/09 09:01:52;;;;;;;43.53;22.03;;;5.30;99.90;;;;;;6153884;28;20602;-61
2022/12/09 09:04:58;;;;;;;31.00;22.30;;;5.30;99.90;;;;;;6153173;28;20979;-61
2022/12/09 09:08:02;;;;;;;26.53;19.83;;;5.40;99.90;;;;;;6153763;28;20994;-61
2022/12/09 09:11:09;;;;;;;31.83;20.30;;;5.50;99.90;;;;;;6153360;28;20482;-59
2022/12/09 09:14:14;;;;;;;31.23;21.90;;;5.50;99.90;;;;;;6149529;28;20794;-59
2022/12/09 09:17:19;;;;;;;30.33;20.40;;;5.50;99.90;;;;;;6149444;28;20490;-59
2022/12/09 09:20:22;;;;;;;25.47;19.40;;;5.60;99.90;;;;;;6166850;28;20478;-59
2022/12/09 09:23:26;;;;;;;27.80;19.53;;;5.60;99.90;;;;;;6167877;28;20506;-59
2022/12/09 09:26:29;;;;;;;25.17;21.00;;;5.60;99.90;;;;;;6151143;28;20493;-59
2022/12/09 09:29:33;;;;;;;28.67;21.07;;;5.60;99.90;;;;;;6150811;28;20482;-60
2022/12/09 09:32:38;;;;;;;31.67;21.37;;;5.70;99.90;;;;;;6151105;28;20522;-58
2022/12/09 09:35:41;;;;;;;29.57;20.67;;;5.80;99.90;;;;;;6149610;28;20577;-59
2022/12/09 09:38:45;;;;;;;27.50;19.03;;;5.80;99.90;;;;;;6137889;28;20500;-58
2022/12/09 09:41:52;;;;;;;26.40;20.47;;;5.70;99.90;;;;;;6145971;28;20470;-58
2022/12/09 09:44:57;;;;;;;26.37;19.03;;;5.80;99.90;;;;;;6150296;28;20489;-60
2022/12/09 09:48:03;;;;;;;26.13;18.57;;;5.80;99.90;;;;;;6146025;28;20479;-59
2022/12/09 09:51:13;;;;;;;27.03;19.20;;;5.90;99.90;;;;;;6150566;28;20518;-59
2022/12/09 09:54:16;;;;;;;25.53;19.70;;;5.90;99.90;;;;;;6168101;28;20529;-61
2022/12/09 09:57:26;;;;;;;24.93;20.90;;;6.00;99.90;;;;;;6174948;28;20488;-59
2022/12/09 10:00:35;;;;;;;24.37;18.67;;;6.10;99.90;;;;;;6164510;28;20480;-60
2022/12/09 10:03:51;;;;;;;23.70;17.90;;;6.20;99.90;;;;;;6127230;28;20566;-59
2022/12/09 10:07:02;;;;;;;23.50;18.70;;;6.30;99.90;;;;;;6126783;28;20542;-59
2022/12/09 10:10:23;;;;;;;30.17;20.93;;;6.30;99.90;;;;;;6130874;28;20476;-60
2022/12/09 10:13:35;;;;;;;24.63;19.20;;;6.40;99.90;;;;;;6139899;28;20494;-58
2022/12/09 10:16:44;;;;;;;27.87;19.53;;;6.40;99.90;;;;;;6145465;28;21033;-59
2022/12/09 10:19:51;;;;;;;23.57;18.50;;;6.30;99.90;;;;;;6141541;28;20475;-59
2022/12/09 10:23:02;;;;;;;25.80;19.17;;;6.30;99.90;;;;;;6140637;28;20482;-58
2022/12/09 10:26:11;;;;;;;23.93;18.37;;;6.30;99.90;;;;;;6137910;28;20471;-59
2022/12/09 10:29:19;;;;;;;26.67;20.43;;;6.30;99.90;;;;;;6142358;28;20470;-58
2022/12/09 10:32:26;;;;;;;25.30;18.00;;;6.30;99.90;;;;;;6154826;28;20486;-58
2022/12/09 10:35:31;;;;;;;24.83;17.80;;;6.30;99.90;;;;;;6159732;28;20624;-58
2022/12/09 10:38:40;;;;;;;24.07;18.43;;;6.30;99.90;;;;;;6178988;28;20984;-58
2022/12/09 10:45:09;;;;;;;22.70;16.90;;;6.30;99.90;;;;;;6178554;28;20478;-58
2022/12/09 10:48:21;;;;;;;24.47;19.10;;;6.30;99.90;;;;;;6178668;28;20561;-58
2022/12/09 10:51:29;;;;;;;21.80;17.40;;;6.30;99.90;;;;;;6158904;28;20481;-59
2022/12/09 10:54:37;;;;;;;23.20;17.70;;;6.30;99.90;;;;;;6156099;28;20562;-58
2022/12/09 10:57:41;;;;;;;21.17;17.57;;;6.30;99.90;;;;;;6177787;28;20770;-58
2022/12/09 11:00:59;;;;;;;20.57;16.67;;;6.30;99.90;;;;;;6177724;28;20446;-59
2022/12/09 11:04:13;;;;;;;22.83;16.40;;;6.30;99.90;;;;;;6178182;28;20557;-59
2022/12/09 11:07:21;;;;;;;25.93;18.30;;;6.30;99.90;;;;;;6178117;28;20964;-58
2022/12/09 11:10:26;;;;;;;25.47;19.50;;;6.30;99.90;;;;;;6177554;28;20496;-59
2022/12/09 11:13:40;;;;;;;26.70;18.73;;;6.30;99.90;;;;;;6178395;28;20480;-59
2022/12/09 11:16:44;;;;;;;25.47;18.73;;;6.20;99.90;;;;;;6161925;28;20518;-59
2022/12/09 11:19:51;;;;;;;26.63;19.27;;;6.30;99.90;;;;;;6141829;28;20490;-60
2022/12/09 11:23:14;;;;;;;24.50;19.10;;;6.30;99.90;;;;;;6129984;28;20475;-65
2022/12/09 11:26:24;;;;;;;25.77;19.37;;;6.30;99.90;;;;;;6130974;28;20486;-61
2022/12/09 11:29:28;;;;;;;29.33;19.90;;;6.40;99.90;;;;;;6144517;28;20486;-61
2022/12/09 11:32:31;;;;;;;27.57;19.83;;;6.40;99.90;;;;;;6177272;28;20501;-60
2022/12/09 11:35:51;;;;;;;26.67;19.57;;;6.20;99.90;;;;;;6177119;28;20470;-59
2022/12/09 11:39:21;;;;;;;28.43;20.00;;;6.00;99.90;;;;;;6129014;28;20472;-60
2022/12/09 11:42:32;;;;;;;24.37;20.13;;;6.00;99.90;;;;;;6128939;28;20849;-60
2022/12/09 11:45:38;;;;;;;30.20;21.97;;;6.10;99.90;;;;;;6128399;28;20492;-59
2022/12/09 11:48:47;;;;;;;27.90;21.30;;;6.20;99.90;;;;;;6128458;28;20451;-60
2022/12/09 11:52:07;;;;;;;24.77;18.47;;;6.30;99.90;;;;;;6129050;28;20440;-58
2022/12/09 11:55:18;;;;;;;26.80;19.83;;;6.40;99.90;;;;;;6133311;28;20457;-60
2022/12/09 11:58:26;;;;;;;26.30;19.03;;;6.40;99.90;;;;;;6176319;28;20478;-59
2022/12/09 12:01:38;;;;;;;34.13;20.87;;;6.40;99.90;;;;;;6176553;28;20484;-60
2022/12/09 12:04:52;;;;;;;26.07;20.80;;;6.30;99.90;;;;;;6176477;28;20613;-60
2022/12/09 12:08:06;;;;;;;27.33;21.23;;;6.30;99.90;;;;;;6176349;28;20465;-59
2022/12/09 12:11:14;;;;;;;28.63;19.80;;;6.20;99.90;;;;;;6176024;28;20478;-59
2022/12/09 12:14:22;;;;;;;34.30;19.53;;;6.20;99.90;;;;;;6176121;28;20470;-59
2022/12/09 12:17:32;;;;;;;25.70;20.33;;;6.20;99.90;;;;;;6176082;28;20482;-59
2022/12/09 12:20:47;;;;;;;27.23;19.80;;;6.20;99.90;;;;;;6157186;28;20479;-60
2022/12/09 12:24:14;;;;;;;28.83;20.40;;;6.30;99.90;;;;;;6151677;28;20482;-59
2022/12/09 12:27:30;;;;;;;33.40;23.37;;;6.30;99.90;;;;;;6140084;29;20493;-59
2022/12/09 12:30:41;;;;;;;30.80;22.10;;;6.40;99.90;;;;;;6166623;28;20482;-60
2022/12/09 12:33:56;;;;;;;25.77;19.70;;;6.40;99.90;;;;;;6175479;28;20566;-59
2022/12/09 12:37:34;;;;;;;26.53;19.13;;;6.40;99.90;;;;;;6177852;28;20481;-59
2022/12/09 12:40:42;;;;;;;23.67;18.40;;;6.30;99.90;;;;;;6178059;28;20474;-59
2022/12/09 12:47:34;;;;;;;32.87;21.40;;;6.10;99.90;;;;;;6177733;28;20988;-59
2022/12/09 12:50:56;;;;;;;29.63;21.23;;;6.10;99.90;;;;;;6164613;28;20950;-60
2022/12/09 12:54:14;;;;;;;30.77;21.93;;;6.20;99.90;;;;;;6152733;28;20498;-59
2022/12/09 12:57:25;;;;;;;31.97;22.03;;;6.10;99.90;;;;;;6176495;28;20485;-60
2022/12/09 13:00:52;;;;;;;28.57;20.33;;;6.10;99.90;;;;;;6177038;28;20474;-61
2022/12/09 13:04:03;;;;;;;36.43;23.10;;;6.20;99.90;;;;;;6176752;28;20463;-61
2022/12/09 13:07:14;;;;;;;28.73;22.03;;;6.10;99.90;;;;;;6177227;28;20465;-62
2022/12/09 13:10:24;;;;;;;28.73;21.20;;;6.10;99.90;;;;;;6176635;28;20474;-61
2022/12/09 13:13:36;;;;;;;28.80;22.63;;;6.10;99.90;;;;;;6175963;28;20481;-60
2022/12/09 13:16:41;;;;;;;31.17;21.53;;;6.10;99.90;;;;;;6177644;28;20482;-59
2022/12/09 13:19:49;;;;;;;31.33;22.50;;;6.10;99.90;;;;;;6176138;28;20478;-61
2022/12/09 13:23:00;;;;;;;34.00;23.20;;;6.20;99.90;;;;;;6176920;28;20478;-60
2022/12/09 13:26:17;;;;;;;28.90;22.20;;;6.30;99.90;;;;;;6176006;28;20477;-58
2022/12/09 13:29:34;;;;;;;32.50;23.70;;;6.30;99.90;;;;;;6176282;28;20481;-60
2022/12/09 13:33:11;;;;;;;29.90;22.03;;;6.30;99.90;;;;;;6176107;28;20490;-59
2022/12/09 13:36:21;;;;;;;27.50;20.33;;;6.30;99.90;;;;;;6173106;28;20482;-60
2022/12/09 13:39:57;;;;;;;28.67;22.00;;;6.30;99.90;;;;;;6152637;28;20494;-59
2022/12/09 13:43:14;;;;;;;30.63;21.80;;;6.30;99.90;;;;;;6154613;28;20577;-59
2022/12/09 13:46:21;;;;;;;32.37;20.60;;;6.30;99.90;;;;;;6157567;28;20558;-61
2022/12/09 13:49:27;;;;;;;26.40;20.80;;;6.30;99.90;;;;;;6156674;28;20459;-60
2022/12/09 13:52:41;;;;;;;32.43;21.50;;;6.20;99.90;;;;;;6157201;28;20821;-60
2022/12/09 13:55:51;;;;;;;31.27;22.50;;;6.30;99.90;;;;;;6167927;28;20989;-60
2022/12/09 13:59:35;;;;;;;29.43;21.30;;;6.30;99.90;;;;;;6181910;28;20478;-60
2022/12/09 14:02:43;;;;;;;31.03;20.33;;;6.30;99.90;;;;;;6158534;28;20478;-60
2022/12/09 14:05:48;;;;;;;26.03;20.87;;;6.30;99.90;;;;;;6154821;28;20471;-60
2022/12/09 14:08:55;;;;;;;30.00;21.20;;;6.30;99.90;;;;;;6155390;28;20482;-59
2022/12/09 14:12:00;;;;;;;27.17;19.80;;;6.20;99.90;;;;;;6155107;28;20557;-61
2022/12/09 14:15:27;;;;;;;27.93;21.63;;;6.20;99.90;;;;;;6149824;28;20792;-64
2022/12/09 14:18:32;;;;;;;26.30;20.97;;;6.20;99.90;;;;;;6143212;28;20478;-62
2022/12/09 14:21:37;;;;;;;29.53;21.63;;;6.20;99.90;;;;;;6142989;28;20490;-60
2022/12/09 14:24:41;;;;;;;26.87;19.10;;;6.20;99.90;;;;;;6140946;28;20493;-63
2022/12/09 14:28:36;;;;;;;29.40;21.00;;;6.20;99.90;;;;;;6143787;28;20435;-62
2022/12/09 14:32:01;;;;;;;30.40;22.10;;;6.20;99.90;;;;;;6133479;28;20490;-58
2022/12/09 14:35:22;;;;;;;30.67;21.00;;;6.00;99.90;;;;;;6130862;28;20951;-59
2022/12/09 14:38:32;;;;;;;32.40;21.70;;;6.00;99.90;;;;;;6172001;28;20552;-59
2022/12/09 14:41:40;;;;;;;27.33;21.87;;;6.00;99.90;;;;;;6177840;28;20474;-59
2022/12/09 14:44:53;;;;;;;27.57;21.03;;;6.00;99.90;;;;;;6178605;28;20489;-59
2022/12/09 14:47:57;;;;;;;28.30;21.70;;;6.00;99.90;;;;;;6178380;28;20477;-60
2022/12/09 14:51:07;;;;;;;31.80;21.70;;;5.90;99.90;;;;;;6166354;28;20486;-59
2022/12/09 14:54:15;;;;;;;31.67;21.47;;;5.90;99.90;;;;;;6153513;28;20494;-59
2022/12/09 14:57:22;;;;;;;32.17;21.50;;;6.00;99.90;;;;;;6154119;28;20517;-59
2022/12/09 15:00:30;;;;;;;28.97;20.00;;;6.00;99.90;;;;;;6150914;28;20472;-59
2022/12/09 15:03:33;;;;;;;29.77;21.80;;;6.00;99.90;;;;;;6153062;28;20494;-60
2022/12/09 15:06:48;;;;;;;31.30;20.87;;;6.00;99.90;;;;;;6156310;28;20606;-59
2022/12/09 15:09:55;;;;;;;31.00;21.57;;;6.00;99.90;;;;;;6154055;28;20453;-59
2022/12/09 15:12:58;;;;;;;33.40;23.47;;;6.00;99.90;;;;;;6155019;28;20463;-60
2022/12/09 15:16:07;;;;;;;26.63;20.77;;;5.90;99.90;;;;;;6155627;28;20478;-60
2022/12/09 15:19:18;;;;;;;27.77;20.33;;;6.00;99.90;;;;;;6155997;28;20470;-59
2022/12/09 15:22:42;;;;;;;30.60;23.40;;;6.00;99.90;;;;;;6152231;28;20478;-59
2022/12/09 15:25:53;;;;;;;28.80;21.60;;;6.00;99.90;;;;;;6150575;28;20475;-59
2022/12/09 15:28:59;;;;;;;31.93;22.97;;;6.00;99.90;;;;;;6144816;28;20475;-58
2022/12/09 15:32:20;;;;;;;29.93;22.30;;;6.00;99.90;;;;;;6135611;28;20483;-58
2022/12/09 15:35:26;;;;;;;30.80;23.50;;;6.00;99.90;;;;;;6135904;28;20818;-58
2022/12/09 15:38:45;;;;;;;30.70;21.80;;;6.00;99.90;;;;;;6159266;28;20479;-58
2022/12/09 15:42:06;;;;;;;34.93;23.80;;;5.90;99.90;;;;;;6154555;28;20484;-59
2022/12/09 15:45:14;;;;;;;32.70;23.90;;;5.90;99.90;;;;;;6148957;28;20467;-59
2022/12/09 15:48:24;;;;;;;31.37;23.13;;;5.90;99.90;;;;;;6154926;28;20493;-59
2022/12/09 15:51:28;;;;;;;31.83;23.40;;;5.80;99.90;;;;;;6154127;28;20497;-59
2022/12/09 15:54:36;;;;;;;32.67;24.60;;;5.80;99.90;;;;;;6155456;28;20487;-60
2022/12/09 15:57:42;;;;;;;26.80;21.20;;;5.80;99.90;;;;;;6178193;28;20549;-61
2022/12/09 16:00:47;;;;;;;29.97;24.70;;;5.80;99.90;;;;;;6178821;28;20456;-60
2022/12/09 16:03:55;;;;;;;28.97;24.63;;;5.80;99.90;;;;;;6178088;28;20569;-62
2022/12/09 16:07:06;;;;;;;25.60;19.97;;;5.80;99.90;;;;;;6177676;28;20485;-61
2022/12/09 16:10:12;;;;;;;34.50;24.43;;;5.80;99.90;;;;;;6165347;28;20977;-61